Argus, CA

1:59 PM PST on February 10, 2016 (GMT -0800)
Searles Valley | | Change Station
CLOSE
Current Station
Personal Weather Station
Location: Trona, CA
Elevation: 1696 ft
Nearby Weather Stations

Elev 1696 ft 35.77 °N, 117.38 °W | Updated 12 seconds ago

Clear
Clear
84.0 °F
Feels Like 81 °F
N
0.0
Wind Variable Wind from North
Gusts 0.7 mph

Today
High -- | Low -- °F
--% Chance of Precip.
Yesterday
High -- | Low -- °F
Precip. -- in
Pressure 30.22 in
Visibility 10.0 miles
Clouds Few 28000 ft
Heat Index 81 °F
Dew Point 32 °F
Humidity 15%
Rainfall 0.00 in
Snow Depth Not available.
6:42 AM 5:25 PM
Waxing Crescent, 7% visible
METAR KNID 102156Z 00000KT 10SM FEW280 23/M03 A3022 RMK AO2 SLP232 T02281028 $
Pressure 30.22 in
Visibility 10.0 miles
Clouds Few 28000 ft
Heat Index 81 °F
Dew Point 32 °F
Humidity 15%
Rainfall 0.00 in
Snow Depth Not available.
6:42 AM 5:25 PM
Waxing Crescent, 7% visible
METAR KNID 102156Z 00000KT 10SM FEW280 23/M03 A3022 RMK AO2 SLP232 T02281028 $

10-Day Weather Forecast

Almanac

Astronomy

Feb. 10, 2016 Rise Set
Actual Time
Civil Twilight
Nautical Twilight
Astronomical Twilight
Moon
Length of Visible Light
Length of Day
Tomorrow will be .
, % of the Moon is Illuminated

Today's Extremes

State Highs State Lows

Community

WunderPhotos

Upload Photos

1,891,951 photos uploaded!

WunderBlog® & News

Nearby

Air Quality

  Air Quality AQ Index Pollutant
Not available.

Snow Depth

Station Depth Elevation

Earthquake Activity

City Distance Mag. Time & Date
Minimum magnitude displayed is 2.5.

Coastal Water Temperatures

Place Temperature

Stations

Nearby Weather Stations

Station Location Temp. Windchill Dew Point Humidity Wind Precip. Elev Updated Type
                   

Watches & Warnings

There are currently no watches in effect.